Time;durP1;ratioP1;P1;durP2;ratioP2;P2;SDS_P1;SDS_P2;PMS_P1;PMS_P2;Temp;Humidity;BMP_temperature;BMP_pressure;BME280_temperature;BME280_humidity;BME280_pressure;Samples;Min_cycle;Max_cycle;Signal;HPM_P1;HPM_P2
2022/07/06 00:00:41;;;;;;;5.15;3.08;;;;;;;14.71;62.13;102487.25;5034478;28;20096;-63
2022/07/06 00:03:07;;;;;;;6.28;3.15;;;;;;;14.76;62.15;102472.25;5034409;28;20029;-63
2022/07/06 00:05:32;;;;;;;8.55;3.05;;;;;;;14.65;62.20;102479.16;5034427;28;20390;-64
2022/07/06 00:07:57;;;;;;;5.70;3.10;;;;;;;14.60;62.94;102479.91;5034002;28;20057;-63
2022/07/06 00:10:23;;;;;;;7.40;3.45;;;;;;;14.47;63.30;102476.97;5034387;28;20070;-63
2022/07/06 00:12:48;;;;;;;6.25;3.20;;;;;;;14.34;63.16;102482.88;5034151;28;20399;-62
2022/07/06 00:15:13;;;;;;;7.65;3.28;;;;;;;14.29;63.37;102489.88;5034039;28;20021;-62
2022/07/06 00:17:39;;;;;;;6.10;3.40;;;;;;;14.19;63.81;102487.88;5034183;28;20520;-63
2022/07/06 00:20:05;;;;;;;6.85;3.20;;;;;;;14.17;64.19;102493.13;5034039;28;20018;-63
2022/07/06 00:22:30;;;;;;;7.78;3.30;;;;;;;14.18;64.08;102494.06;5033818;28;20030;-63
2022/07/06 00:24:55;;;;;;;5.47;3.33;;;;;;;14.16;64.14;102498.44;5033839;28;20100;-63
2022/07/06 00:27:21;;;;;;;7.25;3.42;;;;;;;14.12;64.27;102499.22;5034116;28;20033;-63
2022/07/06 00:29:46;;;;;;;8.10;3.60;;;;;;;14.14;63.88;102493.09;5033810;28;20101;-63
2022/07/06 00:32:12;;;;;;;6.00;3.38;;;;;;;14.04;64.72;102494.63;5032355;28;20075;-63
2022/07/06 00:34:39;;;;;;;6.45;3.30;;;;;;;14.09;63.96;102493.81;5033912;28;20029;-63
2022/07/06 00:37:06;;;;;;;8.35;3.40;;;;;;;14.16;63.61;102488.69;5015993;28;20049;-63
2022/07/06 00:39:31;;;;;;;10.48;3.30;;;;;;;14.15;63.71;102492.22;5034143;28;20180;-63
2022/07/06 00:41:57;;;;;;;4.70;3.30;;;;;;;14.20;63.43;102495.88;5033627;28;20474;-63
2022/07/06 00:44:22;;;;;;;5.90;3.30;;;;;;;14.16;64.05;102493.13;5033712;28;20438;-63
2022/07/06 00:46:48;;;;;;;9.30;3.17;;;;;;;14.10;63.87;102490.34;5033566;28;20087;-63
2022/07/06 00:51:58;;;;;;;5.70;3.50;;;;;;;13.88;64.65;102489.84;5034137;28;20505;-63
2022/07/06 00:54:23;;;;;;;5.32;3.30;;;;;;;13.74;64.99;102481.50;5033187;28;20033;-63
2022/07/06 00:56:49;;;;;;;6.03;3.40;;;;;;;13.84;64.71;102492.38;5033419;28;20025;-62
2022/07/06 00:59:14;;;;;;;5.50;3.25;;;;;;;13.82;64.59;102487.03;5033533;28;20014;-63
2022/07/06 01:01:40;;;;;;;8.00;3.15;;;;;;;13.88;64.29;102488.94;5032375;28;20566;-62
2022/07/06 01:04:06;;;;;;;6.95;3.50;;;;;;;13.91;64.16;102481.03;5033232;28;20533;-63
2022/07/06 01:06:32;;;;;;;8.77;3.42;;;;;;;13.92;64.34;102481.06;5033267;28;20045;-63
2022/07/06 01:08:59;;;;;;;6.10;3.58;;;;;;;13.88;64.21;102483.63;5033257;28;20028;-63
2022/07/06 01:11:25;;;;;;;7.00;3.60;;;;;;;13.80;64.77;102485.22;5032574;28;20068;-63
2022/07/06 01:13:51;;;;;;;7.18;3.30;;;;;;;13.69;65.35;102476.97;5033387;28;20116;-63
2022/07/06 01:16:17;;;;;;;9.65;3.40;;;;;;;13.59;65.21;102473.19;5033169;28;20105;-62
2022/07/06 01:18:43;;;;;;;4.82;3.22;;;;;;;13.57;65.46;102476.66;5031998;28;20112;-63
2022/07/06 01:21:13;;;;;;;6.65;3.80;;;;;;;13.51;66.00;102485.38;5032973;28;20544;-62
2022/07/06 01:23:43;;;;;;;5.13;3.53;;;;;;;13.38;66.33;102476.22;5032810;28;20029;-62
2022/07/06 01:26:14;;;;;;;4.80;3.45;;;;;;;13.24;66.87;102478.53;5033053;28;20037;-62
2022/07/06 01:28:40;;;;;;;6.65;3.50;;;;;;;13.16;67.77;102485.34;5033034;28;20026;-63
2022/07/06 01:31:13;;;;;;;6.63;4.07;;;;;;;13.11;67.47;102480.78;5033087;28;20038;-62
2022/07/06 01:33:38;;;;;;;6.93;3.70;;;;;;;13.10;67.39;102478.97;5033001;28;20375;-63
2022/07/06 01:36:04;;;;;;;8.52;3.65;;;;;;;13.11;67.33;102484.34;5032858;28;20422;-62
2022/07/06 01:38:29;;;;;;;9.13;3.70;;;;;;;13.15;67.03;102483.56;5031767;28;20037;-62
2022/07/06 01:40:55;;;;;;;8.70;4.30;;;;;;;13.31;66.58;102483.97;5033039;28;20120;-63
2022/07/06 01:43:20;;;;;;;7.25;3.97;;;;;;;13.38;66.34;102485.94;5032945;28;20141;-63
2022/07/06 01:45:45;;;;;;;5.75;3.67;;;;;;;13.39;65.79;102485.97;5032741;28;20056;-63
2022/07/06 01:48:11;;;;;;;5.63;3.90;;;;;;;13.44;66.36;102486.09;5032806;28;20073;-63
2022/07/06 01:50:36;;;;;;;5.47;3.60;;;;;;;13.38;66.78;102481.53;5032796;28;20391;-63
2022/07/06 01:53:02;;;;;;;6.50;4.07;;;;;;;13.34;66.75;102484.06;5032952;28;20064;-63
2022/07/06 01:55:27;;;;;;;5.15;4.10;;;;;;;13.37;66.76;102485.03;5032657;28;20475;-63
2022/07/06 01:57:52;;;;;;;6.45;4.00;;;;;;;13.44;66.16;102480.75;5032796;28;20079;-63
2022/07/06 02:00:18;;;;;;;6.20;4.10;;;;;;;13.40;66.76;102479.78;5032631;28;20466;-63
2022/07/06 02:02:43;;;;;;;9.43;4.28;;;;;;;13.44;66.58;102484.31;5032970;28;20025;-63
2022/07/06 02:05:09;;;;;;;7.35;4.30;;;;;;;13.54;65.99;102474.84;5032585;28;20554;-63
2022/07/06 02:07:34;;;;;;;6.65;4.05;;;;;;;13.58;65.95;102483.78;5032525;28;20510;-62
2022/07/06 02:09:59;;;;;;;5.97;3.95;;;;;;;13.56;65.74;102486.38;5031382;28;20032;-63
2022/07/06 02:12:25;;;;;;;8.38;4.25;;;;;;;13.52;65.99;102487.16;5032425;28;20120;-62
2022/07/06 02:14:50;;;;;;;8.00;4.20;;;;;;;13.56;65.58;102482.84;5032614;28;20033;-63
2022/07/06 02:17:15;;;;;;;6.30;4.05;;;;;;;13.56;66.03;102483.72;5032367;28;20026;-63
2022/07/06 02:19:41;;;;;;;6.88;4.30;;;;;;;13.59;65.72;102489.13;5032514;28;20033;-63
2022/07/06 02:22:06;;;;;;;6.30;4.20;;;;;;;13.60;65.55;102479.41;5032599;28;20475;-63
2022/07/06 02:24:32;;;;;;;6.30;4.05;;;;;;;13.60;65.76;102487.38;5034208;28;20028;-63
2022/07/06 02:26:57;;;;;;;9.30;4.35;;;;;;;13.59;65.19;102480.28;5036051;28;20471;-62
2022/07/06 02:29:22;;;;;;;6.90;4.63;;;;;;;13.55;65.66;102489.03;5034821;28;20025;-63
2022/07/06 02:31:48;;;;;;;6.68;4.47;;;;;;;13.49;65.99;102480.06;5035973;28;20033;-63
2022/07/06 02:34:13;;;;;;;6.90;4.53;;;;;;;13.40;66.60;102474.47;5036226;28;20071;-63
2022/07/06 02:36:39;;;;;;;7.40;4.40;;;;;;;13.39;66.70;102480.66;5036286;28;20079;-63
2022/07/06 02:39:04;;;;;;;8.70;4.70;;;;;;;13.34;66.70;102479.66;5034744;28;20025;-62
2022/07/06 02:41:29;;;;;;;6.00;4.35;;;;;;;13.30;66.99;102480.44;5035925;28;20056;-63
2022/07/06 02:43:55;;;;;;;7.60;4.32;;;;;;;13.22;67.28;102485.53;5035869;28;20034;-63
2022/07/06 02:46:20;;;;;;;8.27;4.60;;;;;;;13.15;67.64;102488.88;5035816;28;20116;-63
2022/07/06 02:48:46;;;;;;;6.55;4.32;;;;;;;13.14;67.61;102483.50;5034536;28;20025;-62
2022/07/06 02:51:11;;;;;;;6.03;4.60;;;;;;;13.19;66.88;102472.16;5035913;28;20033;-62
2022/07/06 02:53:36;;;;;;;8.60;4.78;;;;;;;13.23;66.67;102473.16;5035528;28;20545;-63
2022/07/06 02:56:02;;;;;;;8.20;4.40;;;;;;;13.21;66.87;102482.81;5035784;28;20091;-62
2022/07/06 02:58:27;;;;;;;7.28;4.80;;;;;;;13.14;67.26;102480.84;5035699;28;20441;-63
2022/07/06 03:00:53;;;;;;;6.68;4.85;;;;;;;13.12;67.16;102486.13;5035513;28;20176;-63
2022/07/06 03:03:18;;;;;;;7.15;5.03;;;;;;;13.11;67.26;102491.41;5035686;28;20425;-63
2022/07/06 03:05:46;;;;;;;9.15;4.93;;;;;;;13.13;67.42;102495.88;5035646;28;20462;-64
2022/07/06 03:08:11;;;;;;;9.98;4.60;;;;;;;13.15;66.77;102494.19;5035326;28;20602;-63
2022/07/06 03:10:37;;;;;;;7.20;4.80;;;;;;;13.19;66.90;102487.16;5035426;28;20108;-62
2022/07/06 03:13:02;;;;;;;6.65;4.63;;;;;;;13.15;67.31;102486.22;5035111;28;20445;-63
2022/07/06 03:15:28;;;;;;;8.57;4.75;;;;;;;13.15;67.56;102490.63;5035235;28;20022;-63
2022/07/06 03:17:53;;;;;;;8.48;4.80;;;;;;;13.12;67.39;102494.09;5035256;28;20025;-62
2022/07/06 03:20:18;;;;;;;6.40;4.75;;;;;;;13.13;67.57;102494.97;5035637;28;20025;-63
2022/07/06 03:22:44;;;;;;;10.40;4.97;;;;;;;13.15;67.63;102496.84;5035164;28;20532;-62
2022/07/06 03:25:09;;;;;;;7.72;4.80;;;;;;;13.13;67.60;102500.28;5034976;28;20443;-63
2022/07/06 03:27:35;;;;;;;7.53;4.90;;;;;;;13.07;67.97;102497.47;5035075;28;20033;-63
2022/07/06 03:30:01;;;;;;;9.52;4.78;;;;;;;13.07;68.45;102501.03;5034982;28;20030;-62
2022/07/06 03:32:27;;;;;;;10.20;5.00;;;;;;;12.99;68.72;102495.50;5034899;28;20095;-63
2022/07/06 03:34:52;;;;;;;8.40;4.90;;;;;;;12.93;68.99;102498.00;5034674;28;20090;-63
2022/07/06 03:37:17;;;;;;;9.90;4.88;;;;;;;12.88;68.71;102501.38;5034886;28;20029;-63
2022/07/06 03:39:43;;;;;;;9.68;5.00;;;;;;;12.84;69.40;102495.06;5035021;28;20029;-63
2022/07/06 03:42:08;;;;;;;8.57;5.10;;;;;;;12.74;69.13;102498.34;5034911;28;20506;-63
2022/07/06 03:44:34;;;;;;;8.70;4.82;;;;;;;12.72;69.05;102494.75;5034795;28;20025;-62
2022/07/06 03:46:59;;;;;;;7.65;4.88;;;;;;;12.66;69.38;102499.88;5034678;28;20036;-63
2022/07/06 03:49:26;;;;;;;9.32;5.03;;;;;;;12.64;69.38;102501.59;5034908;28;20117;-62
2022/07/06 03:51:52;;;;;;;6.75;4.57;;;;;;;12.58;69.71;102497.00;5034560;28;20521;-63
2022/07/06 03:54:17;;;;;;;7.07;4.97;;;;;;;12.59;69.75;102501.47;5034348;28;20038;-63
2022/07/06 03:56:43;;;;;;;9.10;4.82;;;;;;;12.68;69.22;102504.38;5034703;28;20116;-62
2022/07/06 03:59:08;;;;;;;8.10;4.97;;;;;;;12.72;69.09;102494.75;5034876;28;20045;-63
2022/07/06 04:01:33;;;;;;;7.80;4.95;;;;;;;12.81;69.12;102499.44;5034463;28;20564;-63
2022/07/06 04:03:59;;;;;;;8.43;4.95;;;;;;;12.87;68.58;102497.81;5034385;28;20433;-63
2022/07/06 04:06:24;;;;;;;7.13;4.90;;;;;;;12.96;68.38;102494.53;5034154;28;20112;-63
2022/07/06 04:08:50;;;;;;;8.10;5.00;;;;;;;12.94;68.48;102497.16;5034342;28;20025;-63
2022/07/06 04:11:15;;;;;;;8.77;5.22;;;;;;;12.92;68.40;102495.28;5034292;28;20021;-63
2022/07/06 04:13:41;;;;;;;8.70;5.05;;;;;;;12.88;69.04;102496.97;5034137;28;20502;-64
2022/07/06 04:16:08;;;;;;;8.63;5.22;;;;;;;12.83;69.30;102498.59;5034326;28;20052;-62
2022/07/06 04:18:33;;;;;;;8.30;5.00;;;;;;;12.71;69.96;102491.19;5034198;28;20021;-62
2022/07/06 04:20:59;;;;;;;10.80;5.57;;;;;;;12.69;70.13;102490.25;5034082;28;20071;-62
2022/07/06 04:23:25;;;;;;;8.32;5.60;;;;;;;12.64;69.99;102489.22;5034060;28;20422;-62
2022/07/06 04:25:50;;;;;;;8.25;5.43;;;;;;;12.72;69.36;102482.38;5033890;28;20064;-63
2022/07/06 04:28:16;;;;;;;7.43;5.38;;;;;;;12.88;69.45;102482.81;5034034;28;20018;-62
2022/07/06 04:30:41;;;;;;;8.98;5.10;;;;;;;12.99;68.67;102479.59;5033850;28;20038;-63
2022/07/06 04:33:06;;;;;;;10.68;5.35;;;;;;;13.14;68.17;102487.03;5032632;28;20091;-62
2022/07/06 04:35:32;;;;;;;10.57;5.43;;;;;;;13.28;67.74;102485.72;5033850;28;20491;-62
2022/07/06 04:37:57;;;;;;;7.90;5.43;;;;;;;13.36;67.20;102484.97;5033816;28;20112;-63
2022/07/06 04:40:23;;;;;;;7.50;5.20;;;;;;;13.43;66.95;102474.56;5034032;28;20037;-62
2022/07/06 04:42:48;;;;;;;7.88;5.07;;;;;;;13.50;66.79;102483.59;5033851;28;20414;-63
2022/07/06 04:45:13;;;;;;;6.85;5.18;;;;;;;13.57;66.67;102485.53;5033030;28;20494;-63
2022/07/06 04:47:39;;;;;;;7.93;4.93;;;;;;;13.61;66.62;102479.44;5033278;28;20030;-62
2022/07/06 04:50:05;;;;;;;11.50;7.97;;;;;;;13.63;66.43;102482.13;5033700;28;20029;-63
2022/07/06 04:52:30;;;;;;;16.35;8.43;;;;;;;13.62;66.58;102486.56;5030966;28;20045;-62
2022/07/06 04:54:56;;;;;;;7.70;5.50;;;;;;;13.65;67.11;102485.72;5033375;28;20026;-62
2022/07/06 04:57:21;;;;;;;7.65;5.80;;;;;;;13.77;67.02;102488.69;5033531;28;20486;-63
2022/07/06 04:59:47;;;;;;;7.90;5.55;;;;;;;13.86;67.22;102486.22;5033393;28;20032;-63
2022/07/06 05:02:12;;;;;;;9.15;5.32;;;;;;;13.96;66.59;102493.56;5033362;28;20105;-63
2022/07/06 05:04:38;;;;;;;7.65;5.53;;;;;;;14.06;66.34;102486.69;5033363;28;20033;-63
2022/07/06 05:07:04;;;;;;;7.88;5.43;;;;;;;14.18;66.44;102492.31;5033294;28;20050;-62
2022/07/06 05:09:29;;;;;;;10.05;5.78;;;;;;;14.29;66.22;102493.41;5033290;28;20030;-62
2022/07/06 05:11:55;;;;;;;7.38;5.70;;;;;;;14.29;66.53;102500.50;5033316;28;20026;-62
2022/07/06 05:14:20;;;;;;;9.18;5.70;;;;;;;14.36;66.22;102498.88;5033137;28;20505;-63
2022/07/06 05:16:46;;;;;;;10.95;6.03;;;;;;;14.20;67.18;102511.81;5015468;28;20021;-63
2022/07/06 05:19:11;;;;;;;8.18;5.72;;;;;;;14.16;67.19;102504.66;5033209;28;20037;-62
2022/07/06 05:21:38;;;;;;;9.15;5.75;;;;;;;14.31;67.04;102508.53;5032123;28;20045;-63
2022/07/06 05:24:03;;;;;;;8.48;5.93;;;;;;;14.38;67.41;102507.78;5032743;28;20022;-63
2022/07/06 05:26:29;;;;;;;8.10;5.63;;;;;;;14.42;67.16;102509.63;5033050;28;20021;-63
2022/07/06 05:28:54;;;;;;;8.10;5.57;;;;;;;14.53;67.11;102513.47;5033074;28;20033;-63
2022/07/06 05:31:20;;;;;;;8.98;5.80;;;;;;;14.50;67.91;102510.75;5033063;28;20029;-63
2022/07/06 05:33:45;;;;;;;8.60;5.43;;;;;;;14.53;68.01;102514.38;5032977;28;20121;-62
2022/07/06 05:36:11;;;;;;;11.50;5.55;;;;;;;14.60;68.40;102507.41;5033342;28;20083;-62
2022/07/06 05:38:36;;;;;;;10.95;5.63;;;;;;;14.68;68.03;102511.13;5032970;28;20501;-62
2022/07/06 05:41:01;;;;;;;11.82;5.53;;;;;;;14.85;67.84;102508.78;5033032;28;20056;-62
2022/07/06 05:43:27;;;;;;;13.35;5.25;;;;;;;14.99;68.17;102509.97;5032947;28;20029;-63
2022/07/06 05:45:52;;;;;;;7.22;5.18;;;;;;;15.10;68.32;102509.28;5032806;28;20028;-62
2022/07/06 05:51:01;;;;;;;10.90;4.95;;;;;;;15.34;68.18;102506.19;5033267;28;20088;-63
2022/07/06 05:53:27;;;;;;;6.70;4.40;;;;;;;15.48;67.94;102515.28;5032719;28;20433;-64
2022/07/06 05:55:52;;;;;;;6.50;3.92;;;;;;;15.64;66.73;102517.38;5032813;28;20444;-63
2022/07/06 05:58:18;;;;;;;6.43;3.40;;;;;;;15.79;66.30;102514.06;5035648;28;20080;-63
2022/07/06 06:00:43;;;;;;;8.32;3.80;;;;;;;15.87;66.00;102520.41;5036745;28;20029;-62
2022/07/06 06:03:09;;;;;;;6.55;3.70;;;;;;;16.16;65.45;102522.63;5036642;28;20108;-63
2022/07/06 06:05:34;;;;;;;10.73;3.85;;;;;;;16.26;65.19;102521.88;5036685;28;20026;-63
2022/07/06 06:08:00;;;;;;;7.10;3.70;;;;;;;16.37;65.48;102522.03;5036518;28;20045;-63
2022/07/06 06:10:25;;;;;;;7.65;3.78;;;;;;;16.38;64.51;102527.38;5035240;28;20407;-63
2022/07/06 06:12:51;;;;;;;7.07;3.50;;;;;;;16.39;64.76;102522.94;5036395;28;20068;-62
2022/07/06 06:15:17;;;;;;;6.05;3.55;;;;;;;16.52;64.19;102524.91;5036615;28;20108;-63
2022/07/06 06:17:42;;;;;;;7.80;3.70;;;;;;;16.62;64.72;102520.59;5036642;28;20187;-62
2022/07/06 06:20:11;;;;;;;9.07;3.80;;;;;;;16.75;64.27;102522.56;5035044;28;20025;-62
2022/07/06 06:22:51;;;;;;;9.20;3.47;;;;;;;17.05;63.64;102522.03;5036477;28;20386;-62
2022/07/06 06:25:19;;;;;;;7.38;3.08;;;;;;;17.38;63.35;102518.78;5035962;28;20022;-63
2022/07/06 06:27:45;;;;;;;4.55;3.08;;;;;;;17.65;62.26;102514.59;5036406;28;20025;-64
2022/07/06 06:30:11;;;;;;;4.38;2.88;;;;;;;17.86;61.90;102521.88;5036462;28;20025;-62
2022/07/06 06:32:37;;;;;;;4.80;2.60;;;;;;;17.99;59.40;102508.63;5036047;28;20040;-62
2022/07/06 06:35:03;;;;;;;4.45;2.40;;;;;;;18.18;59.82;102519.44;5036268;28;20029;-63
2022/07/06 06:37:29;;;;;;;4.20;2.40;;;;;;;18.22;59.00;102518.56;5035953;28;20036;-63
2022/07/06 06:39:54;;;;;;;5.90;2.20;;;;;;;18.14;57.25;102514.94;5035931;28;20026;-63
2022/07/06 06:42:19;;;;;;;6.88;1.95;;;;;;;18.16;57.37;102518.56;5035982;28;20449;-63
2022/07/06 06:44:45;;;;;;;4.30;2.00;;;;;;;18.16;56.66;102526.56;5036042;28;20049;-63
2022/07/06 06:47:10;;;;;;;4.57;1.77;;;;;;;18.18;56.37;102527.47;5036103;28;20052;-62
2022/07/06 06:49:35;;;;;;;4.50;1.90;;;;;;;18.25;56.43;102523.94;5035804;28;20116;-62
2022/07/06 06:52:01;;;;;;;5.00;1.98;;;;;;;18.35;56.20;102528.47;5036063;28;20030;-62
2022/07/06 06:54:26;;;;;;;4.47;1.83;;;;;;;18.42;55.57;102535.66;5035382;28;20486;-62
2022/07/06 06:56:52;;;;;;;4.18;1.65;;;;;;;18.39;54.70;102530.25;5035817;28;20022;-62
2022/07/06 06:59:17;;;;;;;3.95;1.85;;;;;;;18.47;55.38;102527.63;5034359;28;20030;-62
2022/07/06 07:01:42;;;;;;;3.75;1.77;;;;;;;18.55;55.28;102533.94;5035632;28;20072;-62
2022/07/06 07:04:08;;;;;;;8.77;2.38;;;;;;;18.49;55.44;102531.19;5034316;28;20029;-63
2022/07/06 07:06:33;;;;;;;5.22;1.90;;;;;;;18.63;54.97;102526.81;5035212;28;20038;-63
2022/07/06 07:08:59;;;;;;;3.55;1.80;;;;;;;18.77;54.06;102535.84;5034707;28;20029;-64
2022/07/06 07:11:24;;;;;;;4.00;1.83;;;;;;;18.84;53.48;102528.69;5035471;28;20108;-63
2022/07/06 07:13:50;;;;;;;3.00;1.70;;;;;;;19.00;53.00;102535.91;5035517;28;20033;-64
2022/07/06 07:16:15;;;;;;;2.65;1.60;;;;;;;19.09;53.00;102539.50;5035682;28;20486;-63
2022/07/06 07:18:40;;;;;;;3.53;1.67;;;;;;;19.26;52.06;102533.28;5035368;28;20475;-63
2022/07/06 07:21:06;;;;;;;4.45;1.67;;;;;;;19.45;51.82;102538.69;5035303;28;20022;-63
2022/07/06 07:23:31;;;;;;;6.40;1.80;;;;;;;19.70;50.61;102536.94;5035466;28;20036;-64
2022/07/06 07:25:57;;;;;;;3.63;1.75;;;;;;;19.77;51.25;102534.25;5034950;28;20029;-63
2022/07/06 07:28:22;;;;;;;2.75;1.58;;;;;;;20.04;50.24;102528.84;5035132;28;20026;-62
2022/07/06 07:30:48;;;;;;;2.67;1.67;;;;;;;20.32;48.12;102530.56;5035180;28;20498;-63
2022/07/06 07:33:13;;;;;;;4.55;1.55;;;;;;;20.68;47.71;102534.94;5035141;28;20076;-64
2022/07/06 07:35:38;;;;;;;5.57;1.50;;;;;;;20.95;47.22;102536.63;5035022;28;20053;-62
2022/07/06 07:38:04;;;;;;;5.95;1.70;;;;;;;21.16;46.57;102529.34;5034926;28;20075;-63
2022/07/06 07:40:29;;;;;;;3.47;1.70;;;;;;;21.33;45.80;102542.72;5034857;28;20030;-63
2022/07/06 07:42:55;;;;;;;3.30;1.58;;;;;;;21.50;44.37;102539.00;5034748;28;20034;-63
2022/07/06 07:45:20;;;;;;;3.22;1.70;;;;;;;21.63;45.82;102531.72;5035096;28;20025;-63
2022/07/06 07:47:46;;;;;;;4.18;1.65;;;;;;;21.71;45.02;102527.16;5034672;28;20078;-63
2022/07/06 07:50:12;;;;;;;5.10;1.73;;;;;;;21.84;44.22;102527.03;5034711;28;20490;-63
2022/07/06 07:52:38;;;;;;;6.63;1.50;;;;;;;22.03;43.32;102533.16;5034906;28;20110;-63
2022/07/06 07:55:04;;;;;;;4.57;1.70;;;;;;;22.23;43.02;102533.88;5034208;28;20063;-63
2022/07/06 07:57:29;;;;;;;3.00;1.15;;;;;;;22.43;42.24;102529.13;5034488;28;20028;-63
2022/07/06 07:59:55;;;;;;;3.33;1.50;;;;;;;22.38;42.93;102532.81;5034381;28;20391;-62
2022/07/06 08:02:20;;;;;;;4.28;1.52;;;;;;;22.18;42.92;102530.31;5034758;28;20140;-63
2022/07/06 08:04:46;;;;;;;4.78;1.67;;;;;;;22.31;42.69;102525.69;5033283;28;20490;-62
2022/07/06 08:07:11;;;;;;;2.33;1.38;;;;;;;22.47;42.78;102522.81;5034221;28;20502;-63
2022/07/06 08:09:36;;;;;;;4.20;1.33;;;;;;;22.80;41.93;102517.03;5034172;28;20025;-64
2022/07/06 08:12:02;;;;;;;5.45;1.40;;;;;;;22.87;42.04;102508.84;5034169;28;20037;-64
2022/07/06 08:14:27;;;;;;;4.78;1.60;;;;;;;22.59;41.55;102512.78;5034502;28;20033;-63
2022/07/06 08:16:53;;;;;;;3.08;1.30;;;;;;;22.68;41.75;102516.25;5034320;28;20029;-64
2022/07/06 08:19:18;;;;;;;3.08;1.40;;;;;;;22.91;41.57;102512.38;5034400;28;20060;-63
2022/07/06 08:21:44;;;;;;;5.15;1.60;;;;;;;23.06;41.00;102508.59;5031866;28;20471;-63
2022/07/06 08:24:10;;;;;;;3.63;1.70;;;;;;;23.30;40.93;102516.31;5033736;28;20040;-63
2022/07/06 08:26:35;;;;;;;3.55;1.70;;;;;;;23.66;40.01;102511.25;5034033;28;20076;-63
2022/07/06 08:29:01;;;;;;;3.92;1.60;;;;;;;23.84;40.61;102521.72;5033960;28;20658;-64
2022/07/06 08:31:27;;;;;;;3.33;1.60;;;;;;;23.88;38.64;102517.16;5034088;28;20033;-64
2022/07/06 08:33:53;;;;;;;5.10;1.67;;;;;;;23.65;39.21;102507.69;5034020;28;20033;-67
2022/07/06 08:36:20;;;;;;;3.50;1.50;;;;;;;23.57;38.92;102501.47;5034024;28;20025;-64
2022/07/06 08:38:46;;;;;;;2.28;1.48;;;;;;;23.43;39.42;102500.84;5033832;28;20439;-64
2022/07/06 08:41:14;;;;;;;3.65;1.60;;;;;;;23.27;39.66;102504.69;5034050;28;20434;-64
2022/07/06 08:43:40;;;;;;;3.63;1.65;;;;;;;23.09;40.63;102508.56;5033945;28;20072;-64
2022/07/06 08:46:08;;;;;;;2.65;1.52;;;;;;;23.07;39.77;102507.66;5032779;28;20482;-63
2022/07/06 08:48:37;;;;;;;2.58;1.50;;;;;;;23.36;40.62;102505.41;5033711;28;20052;-63
2022/07/06 08:51:04;;;;;;;5.32;1.50;;;;;;;23.69;40.07;102501.31;5033475;28;20032;-62
2022/07/06 08:53:30;;;;;;;5.82;1.65;;;;;;;23.84;38.19;102504.63;5033492;28;20021;-63
2022/07/06 08:55:55;;;;;;;3.42;1.40;;;;;;;23.84;38.04;102507.34;5033155;28;20479;-64
2022/07/06 08:58:24;;;;;;;2.13;1.40;;;;;;;23.69;38.22;102498.59;5033744;28;20065;-63
2022/07/06 09:00:49;;;;;;;3.13;1.40;;;;;;;23.72;38.81;102494.94;5033430;28;20434;-64
2022/07/06 09:03:15;;;;;;;2.05;1.40;;;;;;;23.41;38.33;102497.25;5033462;28;20057;-63
2022/07/06 09:05:44;;;;;;;3.55;1.48;;;;;;;23.62;40.46;102494.19;5033234;28;20084;-62
2022/07/06 09:08:11;;;;;;;4.07;1.70;;;;;;;23.91;38.66;102493.72;5015941;28;20048;-63
2022/07/06 09:10:37;;;;;;;10.75;1.80;;;;;;;23.96;38.50;102496.31;5033424;28;20026;-63
2022/07/06 09:13:07;;;;;;;5.53;1.40;;;;;;;23.98;36.12;102497.16;5033299;28;20044;-62
2022/07/06 09:15:34;;;;;;;5.90;1.52;;;;;;;24.00;36.87;102492.66;5033519;28;20025;-63
2022/07/06 09:18:01;;;;;;;4.82;1.52;;;;;;;24.06;37.53;102502.44;5033175;28;20030;-62
2022/07/06 09:20:26;;;;;;;3.63;1.50;;;;;;;24.27;35.52;102495.72;5033360;28;20033;-62
2022/07/06 09:22:59;;;;;;;3.42;1.52;;;;;;;24.34;35.66;102490.16;5033247;28;20022;-63
2022/07/06 09:25:25;;;;;;;3.72;1.48;;;;;;;24.54;36.58;102502.38;5032993;28;20435;-63
2022/07/06 09:27:54;;;;;;;4.93;1.40;;;;;;;24.80;35.01;102496.44;5033083;28;20025;-64
2022/07/06 09:30:20;;;;;;;5.65;1.50;;;;;;;24.74;36.17;102494.75;5033034;28;20029;-63
2022/07/06 09:32:49;;;;;;;4.45;1.60;;;;;;;24.65;35.53;102498.53;5032665;28;20113;-63
2022/07/06 09:35:36;;;;;;;3.75;1.52;;;;;;;24.54;37.09;102503.31;5033205;28;20021;-63
2022/07/06 09:38:08;;;;;;;4.32;1.40;;;;;;;24.28;36.84;102509.19;5033184;28;20138;-63
2022/07/06 09:40:39;;;;;;;6.00;1.60;;;;;;;24.10;36.55;102505.03;5033014;28;20048;-62
2022/07/06 09:43:09;;;;;;;4.28;1.45;;;;;;;24.10;36.62;102506.84;5033196;28;20042;-62
2022/07/06 09:45:36;;;;;;;2.17;1.30;;;;;;;24.31;37.10;102503.72;5033076;28;20036;-62
2022/07/06 09:48:06;;;;;;;3.70;1.30;;;;;;;24.66;37.61;102504.84;5032790;28;20602;-62
2022/07/06 09:50:40;;;;;;;6.95;1.42;;;;;;;24.85;35.14;102511.63;5033012;28;20040;-62
2022/07/06 09:53:06;;;;;;;2.05;1.33;;;;;;;24.97;33.70;102511.38;5032884;28;20156;-62
2022/07/06 09:55:31;;;;;;;3.83;1.25;;;;;;;25.20;32.07;102504.56;5032678;28;20076;-63
2022/07/06 09:57:57;;;;;;;2.38;1.30;;;;;;;25.20;33.06;102504.56;5032941;28;20025;-63
2022/07/06 10:00:23;;;;;;;3.80;1.33;;;;;;;25.07;33.33;102503.03;5032889;28;20390;-63
2022/07/06 10:02:48;;;;;;;1.92;1.20;;;;;;;25.05;32.71;102508.47;5033109;28;20041;-63
2022/07/06 10:05:17;;;;;;;4.15;1.50;;;;;;;24.66;34.14;102505.72;5032673;28;20463;-63
2022/07/06 10:07:45;;;;;;;3.70;1.27;;;;;;;24.62;33.50;102506.72;5032468;28;20045;-62
2022/07/06 10:10:11;;;;;;;6.55;1.40;;;;;;;24.61;34.09;102509.47;5031328;28;20056;-63
2022/07/06 10:12:39;;;;;;;3.50;1.40;;;;;;;24.54;33.27;102507.78;5031469;28;20057;-63
2022/07/06 10:15:06;;;;;;;4.00;1.42;;;;;;;24.46;33.34;102503.47;5032578;28;20053;-63
2022/07/06 10:17:32;;;;;;;2.22;1.23;;;;;;;24.43;33.76;102511.63;5032707;28;20029;-62
2022/07/06 10:19:58;;;;;;;5.78;1.48;;;;;;;24.58;33.31;102515.84;5032602;28;20538;-62
2022/07/06 10:22:23;;;;;;;2.20;1.27;;;;;;;24.45;33.76;102511.59;5032503;28;20103;-63
2022/07/06 10:24:50;;;;;;;2.65;1.30;;;;;;;24.42;34.25;102511.66;5032607;28;20048;-63
2022/07/06 10:27:16;;;;;;;4.72;1.35;;;;;;;24.41;34.84;102509.88;5032621;28;20049;-63
2022/07/06 10:29:41;;;;;;;2.70;1.25;;;;;;;24.14;34.46;102516.69;5031326;28;20057;-63
2022/07/06 10:32:09;;;;;;;3.25;1.33;;;;;;;24.07;34.07;102518.63;5032395;28;20432;-62
2022/07/06 10:34:36;;;;;;;4.22;1.50;;;;;;;24.09;34.24;102514.06;5032590;28;20036;-63
2022/07/06 10:37:02;;;;;;;2.92;1.40;;;;;;;24.03;33.22;102508.78;5032350;28;20030;-62
2022/07/06 10:42:56;;;;;;;4.05;1.55;;;;;;;24.43;34.63;102506.22;5032802;28;20064;-63
2022/07/06 10:45:27;;;;;;;4.47;1.30;;;;;;;24.48;33.15;102511.53;5003417;28;20048;-63
2022/07/06 10:48:11;;;;;;;2.15;1.17;;;;;;;24.51;33.67;102507.88;5035929;28;20033;-63
2022/07/06 10:50:55;;;;;;;2.42;1.40;;;;;;;24.60;33.91;102511.28;5035968;28;20139;-63
2022/07/06 10:53:30;;;;;;;6.13;1.52;;;;;;;24.48;34.18;102506.13;5035700;28;20029;-63
2022/07/06 10:55:57;;;;;;;5.90;1.45;;;;;;;24.63;34.48;102513.03;5035631;28;20167;-62
2022/07/06 10:58:48;;;;;;;5.47;1.35;;;;;;;24.63;35.02;102499.53;5035470;28;20104;-63
2022/07/06 11:01:14;;;;;;;4.43;1.40;;;;;;;24.62;34.90;102508.53;5035860;28;20030;-63
2022/07/06 11:03:48;;;;;;;4.22;1.60;;;;;;;24.95;33.16;102501.50;5035700;28;20061;-63
2022/07/06 11:06:18;;;;;;;2.92;1.17;;;;;;;25.12;32.43;102499.31;5035571;28;20049;-63
2022/07/06 11:08:51;;;;;;;1.70;1.10;;;;;;;24.96;30.79;102503.25;5035607;28;20108;-62
2022/07/06 11:11:20;;;;;;;4.95;1.40;;;;;;;25.09;31.34;102495.78;5035565;28;20418;-63
2022/07/06 11:13:56;;;;;;;2.47;1.20;;;;;;;25.24;31.26;102495.44;5035581;28;20022;-62
2022/07/06 11:16:25;;;;;;;3.05;1.40;;;;;;;25.42;30.73;102494.09;5035366;28;20108;-63
2022/07/06 11:19:11;;;;;;;3.17;1.23;;;;;;;25.56;31.45;102500.03;5035420;28;20061;-63
2022/07/06 11:21:41;;;;;;;2.80;1.20;;;;;;;25.54;30.41;102501.00;5035221;28;20071;-64
2022/07/06 11:24:15;;;;;;;2.65;1.13;;;;;;;25.68;31.16;102506.97;5035157;28;20029;-63
2022/07/06 11:26:42;;;;;;;2.38;1.42;;;;;;;25.70;30.56;102492.47;5035283;28;20034;-63
2022/07/06 11:29:10;;;;;;;3.40;1.40;;;;;;;25.63;30.96;102493.53;5035172;28;20463;-62